Time;durP1;ratioP1;P1;durP2;ratioP2;P2;SDS_P1;SDS_P2;PMS_P1;PMS_P2;Temp;Humidity;BMP_temperature;BMP_pressure;BME280_temperature;BME280_humidity;BME280_pressure;Samples;Min_cycle;Max_cycle;Signal;HPM_P1;HPM_P2
2023/04/30 00:00:08;;;;;;;;;;;;;;;21.70;24.86;97565.28;4943590;29;1028;-79
2023/04/30 00:02:35;;;;;;;;;;;;;;;22.11;24.25;97560.66;4944358;29;899;-79
2023/04/30 00:05:01;;;;;;;;;;;;;;;22.21;24.00;97562.31;4927906;29;967;-79
2023/04/30 00:07:26;;;;;;;;;;;;;;;22.22;24.24;97560.25;4945224;29;1072;-79
2023/04/30 00:09:52;;;;;;;;;;;;;;;22.21;24.08;97565.16;4943377;29;916;-79
2023/04/30 00:12:17;;;;;;;;;;;;;;;21.68;24.61;97556.44;4929191;29;977;-79
2023/04/30 00:14:43;;;;;;;;;;;;;;;21.67;24.67;97560.53;4955819;28;1915;-78
2023/04/30 00:17:08;;;;;;;;;;;;;;;21.46;24.81;97532.94;4967463;28;943;-79
2023/04/30 00:19:34;;;;;;;;;;;;;;;21.80;24.47;97558.44;4965961;28;921;-79
2023/04/30 00:22:04;;;;;;;;;;;;;;;21.66;24.84;97558.97;4945434;29;1078;-79
2023/04/30 00:24:29;;;;;;;;;;;;;;;21.61;24.83;97553.88;4943118;29;1283;-79
2023/04/30 00:26:55;;;;;;;;;;;;;;;21.84;24.49;97553.47;4913243;29;1098;-79
2023/04/30 00:29:20;;;;;;;;;;;;;;;22.19;24.23;97555.53;4943054;29;945;-79
2023/04/30 00:31:46;;;;;;;;;;;;;;;21.92;24.23;97547.56;4896020;29;1021;-79
2023/04/30 00:34:11;;;;;;;;;;;;;;;21.90;24.57;97558.53;4927110;29;1980;-79
2023/04/30 00:36:38;;;;;;;;;;;;;;;21.66;24.61;97553.28;4929371;29;951;-79
2023/04/30 00:39:04;;;;;;;;;;;;;;;21.78;24.58;97549.63;4928039;29;914;-79
2023/04/30 00:41:29;;;;;;;;;;;;;;;21.75;24.51;97555.41;4914328;29;1448;-79
2023/04/30 00:43:55;;;;;;;;;;;;;;;21.70;24.65;97544.66;4912146;29;1282;-78
2023/04/30 00:46:20;;;;;;;;;;;;;;;21.68;24.87;97555.66;4928314;29;1146;-79
2023/04/30 00:48:46;;;;;;;;;;;;;;;21.83;24.48;97551.09;4888821;29;1187;-79
2023/04/30 00:51:11;;;;;;;;;;;;;;;21.96;24.23;97545.38;4876288;29;1151;-80
2023/04/30 00:53:37;;;;;;;;;;;;;;;21.79;24.57;97553.25;4901848;29;1993;-79
2023/04/30 00:56:03;;;;;;;;;;;;;;;21.53;25.19;97555.34;4945114;29;1018;-79
2023/04/30 00:58:28;;;;;;;;;;;;;;;21.50;24.98;97550.59;4908673;29;1232;-79
2023/04/30 01:00:54;;;;;;;;;;;;;;;21.76;24.61;97546.47;4929960;29;891;-79
2023/04/30 01:03:21;;;;;;;;;;;;;;;21.83;24.55;97549.06;4911527;29;978;-79
2023/04/30 01:05:47;;;;;;;;;;;;;;;22.16;24.13;97553.59;4899292;29;1278;-79
2023/04/30 01:08:13;;;;;;;;;;;;;;;22.24;23.83;97552.91;4916121;29;951;-79
2023/04/30 01:10:45;;;;;;;;;;;;;;;21.95;24.42;97552.28;4952366;29;1049;-80
2023/04/30 01:13:13;;;;;;;;;;;;;;;21.93;24.50;97555.59;4950029;29;1985;-79
2023/04/30 01:15:41;;;;;;;;;;;;;;;21.74;24.77;97542.50;4967279;29;875;-78
2023/04/30 01:18:22;;;;;;;;;;;;;;;21.89;24.59;97548.47;4949800;29;1226;-79
2023/04/30 01:20:54;;;;;;;;;;;;;;;21.71;24.62;97544.22;4987639;28;1677;-79
2023/04/30 01:23:33;;;;;;;;;;;;;;;21.83;24.54;97540.56;4988123;28;1155;-79
2023/04/30 01:26:07;;;;;;;;;;;;;;;21.40;25.08;97537.56;4974684;28;1193;-79
2023/04/30 01:28:33;;;;;;;;;;;;;;;21.32;25.19;97551.19;5009061;28;875;-79
2023/04/30 01:30:59;;;;;;;;;;;;;;;22.01;24.58;97547.63;4998481;28;1239;-79
2023/04/30 01:33:25;;;;;;;;;;;;;;;22.06;24.23;97547.03;5012457;28;1958;-79
2023/04/30 01:36:00;;;;;;;;;;;;;;;22.34;23.96;97546.06;5014425;28;989;-79
2023/04/30 01:38:28;;;;;;;;;;;;;;;22.21;24.24;97542.47;5045588;28;905;-79
2023/04/30 01:40:54;;;;;;;;;;;;;;;21.90;24.54;97533.06;5030803;28;1001;-78
2023/04/30 01:43:20;;;;;;;;;;;;;;;21.83;24.54;97534.88;5045961;28;943;-79
2023/04/30 01:45:53;;;;;;;;;;;;;;;21.69;24.57;97535.38;5030576;28;1167;-79
2023/04/30 01:48:27;;;;;;;;;;;;;;;21.77;24.42;97536.72;5027849;28;996;-79
2023/04/30 01:50:55;;;;;;;;;;;;;;;21.87;24.58;97536.81;5013807;28;1300;-79
2023/04/30 01:53:21;;;;;;;;;;;;;;;21.73;24.63;97538.88;4994732;28;1890;-79
2023/04/30 01:55:49;;;;;;;;;;;;;;;22.15;24.28;97532.97;5029473;28;989;-79
2023/04/30 01:58:15;;;;;;;;;;;;;;;22.16;24.22;97534.56;5028514;28;987;-79
2023/04/30 02:00:41;;;;;;;;;;;;;;;22.08;24.08;97539.69;5013840;28;1216;-79
2023/04/30 02:03:06;;;;;;;;;;;;;;;21.95;24.37;97532.47;5011677;28;1134;-78
2023/04/30 02:05:32;;;;;;;;;;;;;;;21.78;24.71;97538.31;4988641;28;1524;-79
2023/04/30 02:07:58;;;;;;;;;;;;;;;21.69;24.74;97528.91;4984376;28;1282;-79
2023/04/30 02:10:24;;;;;;;;;;;;;;;21.92;24.25;97536.22;4968871;28;1079;-79
2023/04/30 02:12:50;;;;;;;;;;;;;;;21.84;24.52;97533.63;4953196;28;1342;-79
2023/04/30 02:15:16;;;;;;;;;;;;;;;21.50;25.17;97533.59;4968796;28;1978;-79
2023/04/30 02:17:41;;;;;;;;;;;;;;;21.85;24.28;97526.72;4985506;28;1203;-79
2023/04/30 02:20:07;;;;;;;;;;;;;;;21.84;24.47;97522.31;4968103;28;891;-79
2023/04/30 02:22:33;;;;;;;;;;;;;;;21.63;24.83;97534.38;4947292;29;1218;-79
2023/04/30 02:24:58;;;;;;;;;;;;;;;21.63;24.85;97531.53;4929806;29;1414;-79
2023/04/30 02:27:27;;;;;;;;;;;;;;;21.76;24.79;97521.00;4946888;29;1249;-79
2023/04/30 02:29:53;;;;;;;;;;;;;;;21.97;24.42;97522.28;4929622;29;1077;-79
2023/04/30 02:32:18;;;;;;;;;;;;;;;21.95;24.57;97523.97;4931087;29;1196;-79
2023/04/30 02:34:44;;;;;;;;;;;;;;;22.00;24.36;97526.22;4945402;29;1975;-79
2023/04/30 02:37:09;;;;;;;;;;;;;;;21.71;24.72;97527.22;4960322;28;1089;-78
2023/04/30 02:39:35;;;;;;;;;;;;;;;21.58;24.74;97517.97;4959699;29;943;-79
2023/04/30 02:42:00;;;;;;;;;;;;;;;21.54;24.90;97520.13;4933868;29;1501;-79
2023/04/30 02:44:26;;;;;;;;;;;;;;;21.96;24.44;97522.72;4980324;28;1132;-79
2023/04/30 02:46:51;;;;;;;;;;;;;;;22.21;24.23;97519.00;4950358;29;894;-79
2023/04/30 02:49:17;;;;;;;;;;;;;;;21.93;24.12;97515.94;4948624;29;992;-79
2023/04/30 02:51:42;;;;;;;;;;;;;;;21.82;24.46;97521.19;4934732;29;1112;-79
2023/04/30 02:54:08;;;;;;;;;;;;;;;21.62;24.79;97524.31;4977235;28;1975;-80
2023/04/30 02:56:34;;;;;;;;;;;;;;;21.99;24.10;97521.81;4988657;28;929;-79
2023/04/30 02:58:59;;;;;;;;;;;;;;;21.95;24.49;97529.63;4970561;28;1138;-79
2023/04/30 03:01:25;;;;;;;;;;;;;;;21.56;24.72;97520.47;4949050;29;1264;-79
2023/04/30 03:03:51;;;;;;;;;;;;;;;21.56;24.85;97526.13;4948145;29;1239;-78
2023/04/30 03:06:16;;;;;;;;;;;;;;;22.13;24.20;97529.84;4966044;29;911;-79
2023/04/30 03:08:42;;;;;;;;;;;;;;;22.27;23.82;97517.94;4963739;29;1299;-79
2023/04/30 03:11:07;;;;;;;;;;;;;;;22.16;23.89;97531.72;4968242;28;1189;-79
2023/04/30 03:13:33;;;;;;;;;;;;;;;21.88;24.34;97518.56;4986849;28;1958;-80
2023/04/30 03:15:59;;;;;;;;;;;;;;;21.62;24.80;97524.31;4988666;28;942;-79
2023/04/30 03:18:24;;;;;;;;;;;;;;;21.69;24.91;97517.59;4969449;28;1227;-79
2023/04/30 03:20:50;;;;;;;;;;;;;;;22.21;24.04;97516.97;4987382;28;961;-79
2023/04/30 03:23:15;;;;;;;;;;;;;;;22.29;24.13;97521.13;4969915;28;1302;-78
2023/04/30 03:25:41;;;;;;;;;;;;;;;22.21;24.02;97525.47;4955534;28;1140;-79
2023/04/30 03:28:06;;;;;;;;;;;;;;;21.78;24.64;97526.19;4950883;28;1483;-79
2023/04/30 03:30:32;;;;;;;;;;;;;;;21.69;24.85;97535.38;4968163;28;1027;-79
2023/04/30 03:32:57;;;;;;;;;;;;;;;21.63;24.82;97531.53;4979785;28;1910;-79
2023/04/30 03:35:23;;;;;;;;;;;;;;;21.70;24.85;97531.28;5006194;28;952;-79
2023/04/30 03:37:48;;;;;;;;;;;;;;;21.68;24.94;97533.00;5002466;28;1638;-79
2023/04/30 03:40:14;;;;;;;;;;;;;;;21.53;25.22;97544.03;4985983;28;991;-79
2023/04/30 03:42:40;;;;;;;;;;;;;;;21.77;24.79;97538.78;4987559;28;1247;-79
2023/04/30 03:45:06;;;;;;;;;;;;;;;21.42;25.19;97540.75;4985790;28;1195;-78
2023/04/30 03:47:32;;;;;;;;;;;;;;;21.70;25.06;97539.78;4987322;28;1078;-79
2023/04/30 03:49:58;;;;;;;;;;;;;;;22.24;23.97;97541.56;4985011;28;1064;-79
2023/04/30 03:52:23;;;;;;;;;;;;;;;21.93;24.53;97537.81;4971520;28;1089;-79
2023/04/30 03:54:49;;;;;;;;;;;;;;;22.13;24.08;97540.38;4985720;28;1987;-79
2023/04/30 03:57:15;;;;;;;;;;;;;;;21.66;24.68;97541.97;4966084;28;1248;-79
2023/04/30 03:59:41;;;;;;;;;;;;;;;21.73;24.64;97540.94;4959640;28;1239;-79
2023/04/30 04:02:06;;;;;;;;;;;;;;;21.88;24.42;97553.34;4949943;28;1154;-79
2023/04/30 04:04:32;;;;;;;;;;;;;;;21.72;24.88;97557.13;4966075;28;1340;-79
2023/04/30 04:06:58;;;;;;;;;;;;;;;21.85;24.79;97555.03;4967547;28;983;-79
2023/04/30 04:09:23;;;;;;;;;;;;;;;21.11;25.02;97490.41;4982324;28;1340;-79
2023/04/30 04:11:49;;;;;;;;;;;;;;;21.44;25.39;97558.06;4966636;28;1693;-79
2023/04/30 04:14:15;;;;;;;;;;;;;;;21.58;25.07;97563.25;4950598;28;1910;-79
2023/04/30 04:16:41;;;;;;;;;;;;;;;22.15;24.42;97549.97;4968529;28;1689;-79
2023/04/30 04:19:07;;;;;;;;;;;;;;;22.26;24.28;97556.06;4950082;28;1335;-80
2023/04/30 04:21:33;;;;;;;;;;;;;;;22.45;23.79;97561.88;4967361;28;1227;-80
2023/04/30 04:24:07;;;;;;;;;;;;;;;21.91;24.48;97562.94;4965388;28;1398;-79
2023/04/30 04:26:36;;;;;;;;;;;;;;;21.47;24.98;97562.84;4951304;28;1724;-79
2023/04/30 04:29:07;;;;;;;;;;;;;;;21.71;24.83;97561.22;4985735;28;1133;-79
2023/04/30 04:31:33;;;;;;;;;;;;;;;22.07;24.54;97557.13;4990326;28;1128;-79
2023/04/30 04:33:59;;;;;;;;;;;;;;;22.08;24.33;97564.38;4980880;28;1896;-79
2023/04/30 04:36:27;;;;;;;;;;;;;;;22.26;24.29;97567.38;4967477;28;1244;-79
2023/04/30 04:38:56;;;;;;;;;;;;;;;22.14;24.40;97565.41;4966533;28;1478;-79
2023/04/30 04:41:23;;;;;;;;;;;;;;;21.84;24.83;97567.63;4967568;28;1276;-79
2023/04/30 04:43:50;;;;;;;;;;;;;;;21.61;25.21;97561.56;4965804;28;1542;-80
2023/04/30 04:46:16;;;;;;;;;;;;;;;22.03;24.50;97570.63;4967124;28;1308;-79
2023/04/30 04:48:42;;;;;;;;;;;;;;;22.19;24.41;97564.81;4965467;28;1152;-79
2023/04/30 04:51:08;;;;;;;;;;;;;;;22.18;24.61;97560.41;4967706;28;1540;-79
2023/04/30 04:53:34;;;;;;;;;;;;;;;21.97;24.57;97566.81;4964319;28;1910;-79
2023/04/30 04:55:59;;;;;;;;;;;;;;;21.64;24.89;97561.44;4967886;28;1489;-79
2023/04/30 04:58:25;;;;;;;;;;;;;;;21.61;25.07;97562.38;4964563;28;1120;-79
2023/04/30 05:00:51;;;;;;;;;;;;;;;21.64;25.02;97563.47;4966556;28;1145;-78
2023/04/30 05:03:19;;;;;;;;;;;;;;;22.09;24.61;97568.81;4964689;28;1158;-79
2023/04/30 05:05:45;;;;;;;;;;;;;;;22.41;24.35;97566.88;5016467;28;1217;-79
2023/04/30 05:08:10;;;;;;;;;;;;;;;22.43;24.21;97564.38;5022204;28;976;-79
2023/04/30 05:10:36;;;;;;;;;;;;;;;22.05;24.78;97573.78;5006525;28;1290;-79
2023/04/30 05:13:01;;;;;;;;;;;;;;;21.75;24.95;97569.56;5021584;28;1976;-79
2023/04/30 05:15:27;;;;;;;;;;;;;;;21.64;25.15;97575.59;5005583;28;1288;-79
2023/04/30 05:17:52;;;;;;;;;;;;;;;22.08;24.71;97572.88;5021510;28;946;-79
2023/04/30 05:20:18;;;;;;;;;;;;;;;22.28;24.47;97581.91;5004985;28;1898;-79
2023/04/30 05:22:43;;;;;;;;;;;;;;;22.17;24.64;97587.16;5006353;28;1224;-79
2023/04/30 05:25:09;;;;;;;;;;;;;;;21.84;24.75;97581.78;4980872;28;1281;-79
2023/04/30 05:27:35;;;;;;;;;;;;;;;21.82;24.75;97581.47;4966075;28;946;-79
2023/04/30 05:30:00;;;;;;;;;;;;;;;21.60;25.50;97583.41;4980985;28;909;-79
2023/04/30 05:32:26;;;;;;;;;;;;;;;21.61;25.30;97578.56;4950172;28;1355;-80
2023/04/30 05:34:52;;;;;;;;;;;;;;;21.54;25.49;97582.41;4988192;28;1969;-79
2023/04/30 05:37:19;;;;;;;;;;;;;;;21.66;25.27;97587.28;5001409;28;938;-80
2023/04/30 05:39:45;;;;;;;;;;;;;;;21.53;25.44;97584.44;4967637;28;932;-80
2023/04/30 05:42:10;;;;;;;;;;;;;;;21.40;25.77;97591.34;4985022;28;1180;-80
2023/04/30 05:44:36;;;;;;;;;;;;;;;21.59;25.65;97587.50;4984993;28;930;-79
2023/04/30 05:47:01;;;;;;;;;;;;;;;22.25;24.38;97591.31;4988926;28;890;-80
2023/04/30 05:49:27;;;;;;;;;;;;;;;22.32;24.45;97593.09;4987191;28;1079;-80
2023/04/30 05:51:52;;;;;;;;;;;;;;;21.89;25.06;97582.47;5005516;28;895;-80
2023/04/30 05:54:18;;;;;;;;;;;;;;;21.76;25.05;97580.47;4987945;28;1969;-80
2023/04/30 05:56:43;;;;;;;;;;;;;;;21.66;25.40;97580.78;5018985;28;1179;-79
2023/04/30 05:59:09;;;;;;;;;;;;;;;21.61;25.24;97585.00;4987236;28;1077;-79
2023/04/30 06:01:34;;;;;;;;;;;;;;;21.59;25.55;97590.31;4988903;28;1647;-80
2023/04/30 06:04:00;;;;;;;;;;;;;;;22.17;24.65;97592.03;4984271;28;989;-79
2023/04/30 06:06:26;;;;;;;;;;;;;;;22.45;24.10;97590.22;4985976;28;1102;-79
2023/04/30 06:08:52;;;;;;;;;;;;;;;22.41;24.03;97589.56;4984788;28;985;-79
2023/04/30 06:11:17;;;;;;;;;;;;;;;21.95;24.60;97594.78;4985716;28;1123;-80
2023/04/30 06:13:45;;;;;;;;;;;;;;;21.50;25.40;97604.38;4983222;28;1953;-80
2023/04/30 06:16:11;;;;;;;;;;;;;;;21.65;25.19;97601.88;4986605;28;1263;-80
2023/04/30 06:18:36;;;;;;;;;;;;;;;21.75;24.81;97607.16;4983523;28;966;-80
2023/04/30 06:21:02;;;;;;;;;;;;;;;21.78;25.23;97600.59;4969541;28;984;-80
2023/04/30 06:23:27;;;;;;;;;;;;;;;21.90;24.74;97601.81;4967087;28;1054;-80
2023/04/30 06:25:53;;;;;;;;;;;;;;;21.97;24.64;97603.63;4985060;28;840;-80
2023/04/30 06:28:18;;;;;;;;;;;;;;;22.15;24.40;97595.31;4968244;28;1010;-81
2023/04/30 06:30:44;;;;;;;;;;;;;;;21.85;24.72;97605.22;4999876;28;925;-79
2023/04/30 06:33:10;;;;;;;;;;;;;;;21.55;25.12;97610.28;4987754;28;1878;-80
2023/04/30 06:35:35;;;;;;;;;;;;;;;21.66;25.22;97598.59;5002430;28;1138;-80
2023/04/30 06:38:01;;;;;;;;;;;;;;;21.37;25.35;97603.59;5003921;28;1015;-80
2023/04/30 06:40:26;;;;;;;;;;;;;;;21.85;24.86;97594.69;5004673;28;1011;-80
2023/04/30 06:42:53;;;;;;;;;;;;;;;21.93;24.85;97605.78;4968058;28;1245;-80
2023/04/30 06:45:19;;;;;;;;;;;;;;;21.89;24.99;97603.06;4984869;28;906;-80
2023/04/30 06:47:45;;;;;;;;;;;;;;;21.93;24.51;97600.13;4984566;28;994;-80
2023/04/30 06:50:11;;;;;;;;;;;;;;;21.95;24.71;97604.06;4935517;28;1155;-80
2023/04/30 06:52:37;;;;;;;;;;;;;;;21.71;24.65;97609.34;4985147;28;952;-80
2023/04/30 06:55:02;;;;;;;;;;;;;;;21.65;24.92;97608.31;4983282;28;1914;-81
2023/04/30 06:57:28;;;;;;;;;;;;;;;21.39;25.29;97612.41;4983669;28;955;-80
2023/04/30 06:59:53;;;;;;;;;;;;;;;21.78;24.90;97606.28;4983096;28;931;-80
2023/04/30 07:02:19;;;;;;;;;;;;;;;21.89;24.63;97613.63;4952029;28;1637;-79
2023/04/30 07:04:45;;;;;;;;;;;;;;;22.01;24.22;97607.13;4966771;28;985;-80
2023/04/30 07:07:10;;;;;;;;;;;;;;;21.72;24.60;97608.09;4985646;28;966;-80
2023/04/30 07:09:36;;;;;;;;;;;;;;;21.62;24.95;97605.63;4997536;28;1043;-80
2023/04/30 07:12:02;;;;;;;;;;;;;;;21.35;25.17;97603.25;4988786;28;1075;-80
2023/04/30 07:14:27;;;;;;;;;;;;;;;21.63;24.68;97610.81;5000299;28;1914;-80
2023/04/30 07:16:53;;;;;;;;;;;;;;;21.98;24.12;97608.03;5028341;28;980;-80
2023/04/30 07:19:18;;;;;;;;;;;;;;;22.33;23.56;97615.34;5026576;28;850;-80
2023/04/30 07:21:44;;;;;;;;;;;;;;;22.19;23.88;97613.00;5012038;28;891;-80
2023/04/30 07:24:09;;;;;;;;;;;;;;;21.76;24.29;97608.78;5026370;28;1049;-79
2023/04/30 07:26:35;;;;;;;;;;;;;;;21.72;24.40;97619.44;5027784;28;1313;-80
2023/04/30 07:29:01;;;;;;;;;;;;;;;21.63;24.58;97622.16;5009704;28;1221;-80
2023/04/30 07:31:26;;;;;;;;;;;;;;;21.37;25.07;97621.38;5027283;28;912;-80
2023/04/30 07:33:54;;;;;;;;;;;;;;;21.57;24.90;97623.97;5043054;28;1914;-80
2023/04/30 07:36:19;;;;;;;;;;;;;;;22.10;24.06;97624.22;5027240;28;1024;-80
2023/04/30 07:38:45;;;;;;;;;;;;;;;21.99;24.16;97620.97;5043303;28;859;-80
2023/04/30 07:41:10;;;;;;;;;;;;;;;21.92;24.18;97621.22;5045210;28;992;-80
2023/04/30 07:43:36;;;;;;;;;;;;;;;21.49;24.86;97622.59;5025580;28;950;-80
2023/04/30 07:46:02;;;;;;;;;;;;;;;21.49;24.86;97616.94;5012195;28;951;-80
2023/04/30 07:48:28;;;;;;;;;;;;;;;21.27;25.32;97620.41;5008966;28;1164;-80
2023/04/30 07:50:54;;;;;;;;;;;;;;;21.77;24.75;97618.06;5027856;28;897;-80
2023/04/30 07:53:19;;;;;;;;;;;;;;;22.00;24.44;97614.03;5025475;28;1986;-80
2023/04/30 07:55:45;;;;;;;;;;;;;;;22.15;24.23;97629.31;5027739;28;1108;-80
2023/04/30 07:58:10;;;;;;;;;;;;;;;21.73;24.64;97620.22;5043952;28;877;-80
2023/04/30 08:00:36;;;;;;;;;;;;;;;21.67;24.66;97617.16;5003374;28;943;-80
2023/04/30 08:03:02;;;;;;;;;;;;;;;21.55;25.10;97617.94;5002589;28;942;-80
2023/04/30 08:05:27;;;;;;;;;;;;;;;21.43;25.10;97615.94;5002093;28;1007;-80
2023/04/30 08:07:53;;;;;;;;;;;;;;;21.96;24.43;97616.19;5001290;28;1044;-80
2023/04/30 08:10:18;;;;;;;;;;;;;;;22.22;24.30;97620.56;4986124;28;1517;-80
2023/04/30 08:12:44;;;;;;;;;;;;;;;22.36;23.80;97622.91;5002269;28;978;-80
2023/04/30 08:15:09;;;;;;;;;;;;;;;22.16;24.28;97615.94;4985100;28;1973;-80
2023/04/30 08:17:35;;;;;;;;;;;;;;;21.85;24.60;97617.34;4986342;28;901;-80
2023/04/30 08:20:02;;;;;;;;;;;;;;;21.72;24.86;97616.59;5001214;28;955;-80
2023/04/30 08:22:28;;;;;;;;;;;;;;;21.72;24.78;97619.44;5002572;28;941;-80
2023/04/30 08:24:54;;;;;;;;;;;;;;;21.57;25.01;97612.66;5001708;28;1372;-80
2023/04/30 08:27:20;;;;;;;;;;;;;;;22.21;24.29;97616.16;4986651;28;1086;-80
2023/04/30 08:29:45;;;;;;;;;;;;;;;22.12;24.27;97613.22;5002147;28;1012;-80
2023/04/30 08:32:11;;;;;;;;;;;;;;;22.00;24.42;97612.00;5005376;28;909;-79
2023/04/30 08:34:36;;;;;;;;;;;;;;;21.64;25.02;97603.91;5009419;28;1879;-80
2023/04/30 08:37:02;;;;;;;;;;;;;;;21.91;24.45;97608.28;5009687;28;933;-80
2023/04/30 08:39:27;;;;;;;;;;;;;;;21.77;24.62;97599.03;5042369;28;990;-80
2023/04/30 08:41:56;;;;;;;;;;;;;;;22.22;24.15;97606.41;5044936;28;955;-79
2023/04/30 08:44:22;;;;;;;;;;;;;;;22.32;24.04;97598.75;5025646;28;970;-80
2023/04/30 08:46:51;;;;;;;;;;;;;;;22.23;24.29;97591.00;5026233;28;1257;-80
2023/04/30 08:49:17;;;;;;;;;;;;;;;22.03;24.61;97604.63;5024855;28;1051;-80
2023/04/30 08:51:42;;;;;;;;;;;;;;;21.71;25.00;97606.53;5027055;28;869;-80
2023/04/30 08:54:09;;;;;;;;;;;;;;;21.65;25.14;97604.69;5001362;28;1882;-80
2023/04/30 08:56:35;;;;;;;;;;;;;;;21.48;25.41;97598.38;5002421;28;1059;-80
2023/04/30 08:59:01;;;;;;;;;;;;;;;21.88;25.05;97597.88;5000729;28;1023;-80
2023/04/30 09:01:27;;;;;;;;;;;;;;;22.06;24.49;97592.38;4985577;28;1128;-79
2023/04/30 09:03:52;;;;;;;;;;;;;;;22.12;24.44;97596.22;4984820;28;980;-79
2023/04/30 09:06:18;;;;;;;;;;;;;;;21.92;24.84;97592.88;5001769;28;1015;-80
2023/04/30 09:08:45;;;;;;;;;;;;;;;21.74;25.00;97593.47;4984122;28;1488;-81
2023/04/30 09:11:21;;;;;;;;;;;;;;;21.49;25.30;97599.97;5006966;28;1860;-80
2023/04/30 09:13:48;;;;;;;;;;;;;;;21.77;25.04;97586.91;4973989;28;1910;-80
2023/04/30 09:16:13;;;;;;;;;;;;;;;22.10;24.61;97593.84;4971500;28;1607;-80
2023/04/30 09:18:39;;;;;;;;;;;;;;;22.02;24.55;97591.69;4952675;28;1655;-80
2023/04/30 09:21:07;;;;;;;;;;;;;;;22.23;24.35;97593.84;4947983;29;1246;-80
2023/04/30 09:23:32;;;;;;;;;;;;;;;22.08;24.79;97590.69;4949811;29;1639;-80
2023/04/30 09:25:59;;;;;;;;;;;;;;;21.59;25.35;97593.16;4961218;29;1255;-80
2023/04/30 09:28:27;;;;;;;;;;;;;;;21.72;25.32;97595.97;4942777;29;1155;-81
2023/04/30 09:30:53;;;;;;;;;;;;;;;21.92;24.93;97587.22;4929058;29;966;-79
2023/04/30 09:33:19;;;;;;;;;;;;;;;22.24;24.60;97583.28;4926774;29;1907;-81
2023/04/30 09:35:45;;;;;;;;;;;;;;;22.19;24.50;97587.50;4929445;29;979;-80
2023/04/30 09:38:29;;;;;;;;;;;;;;;21.78;24.94;97574.31;4927700;29;1004;-80
2023/04/30 09:40:56;;;;;;;;;;;;;;;21.57;25.39;97575.84;4928714;29;925;-80
2023/04/30 09:43:22;;;;;;;;;;;;;;;21.66;25.45;97578.78;4925712;29;1201;-81
2023/04/30 09:45:48;;;;;;;;;;;;;;;21.62;25.59;97569.59;4963892;29;1151;-80
2023/04/30 09:48:14;;;;;;;;;;;;;;;22.22;24.74;97569.56;4948853;29;1020;-81
2023/04/30 09:50:40;;;;;;;;;;;;;;;22.38;24.50;97567.78;4949859;29;934;-81
2023/04/30 09:53:07;;;;;;;;;;;;;;;21.82;24.43;97533.31;4949182;29;881;-80
2023/04/30 09:55:33;;;;;;;;;;;;;;;21.45;25.68;97576.63;4950567;29;1000;-80
2023/04/30 09:57:59;;;;;;;;;;;;;;;21.51;25.44;97575.63;4967075;28;932;-80
2023/04/30 10:00:25;;;;;;;;;;;;;;;21.34;25.61;97582.63;4986168;28;993;-81
2023/04/30 10:02:50;;;;;;;;;;;;;;;21.50;25.64;97574.03;4988217;28;1100;-80
2023/04/30 10:05:16;;;;;;;;;;;;;;;21.56;25.50;97565.78;4987591;28;927;-80
2023/04/30 10:07:41;;;;;;;;;;;;;;;21.99;25.18;97575.63;4987988;28;928;-80
2023/04/30 10:10:07;;;;;;;;;;;;;;;22.22;24.69;97578.06;5003022;28;950;-80
2023/04/30 10:12:43;;;;;;;;;;;;;;;21.91;25.03;97574.28;4987984;28;1004;-81
2023/04/30 10:15:19;;;;;;;;;;;;;;;21.48;25.88;97575.72;4987656;28;2050;-80
2023/04/30 10:17:49;;;;;;;;;;;;;;;21.50;25.72;97578.88;5007511;28;947;-80
2023/04/30 10:20:14;;;;;;;;;;;;;;;21.77;25.18;97573.53;5013165;28;1041;-80
2023/04/30 10:22:40;;;;;;;;;;;;;;;22.04;24.75;97575.06;5047022;28;871;-80
2023/04/30 10:25:10;;;;;;;;;;;;;;;22.23;24.92;97573.22;5026768;28;1156;-80
2023/04/30 10:27:35;;;;;;;;;;;;;;;22.01;24.81;97573.13;5012624;28;951;-79
2023/04/30 10:30:01;;;;;;;;;;;;;;;21.96;25.16;97573.69;5026884;28;936;-80
2023/04/30 10:32:29;;;;;;;;;;;;;;;21.79;25.27;97576.69;5046235;28;904;-81
2023/04/30 10:34:54;;;;;;;;;;;;;;;21.65;25.58;97574.34;5045309;28;1902;-80
2023/04/30 10:37:25;;;;;;;;;;;;;;;21.43;25.59;97579.91;5029572;28;1128;-80
2023/04/30 10:39:50;;;;;;;;;;;;;;;21.82;25.34;97572.19;5027576;28;882;-80
2023/04/30 10:42:16;;;;;;;;;;;;;;;22.20;24.74;97577.72;5027181;28;994;-80
2023/04/30 10:44:41;;;;;;;;;;;;;;;22.00;24.74;97577.22;5010334;28;1235;-79
2023/04/30 10:47:07;;;;;;;;;;;;;;;21.95;24.95;97566.47;5012528;28;1245;-80
2023/04/30 10:49:33;;;;;;;;;;;;;;;22.16;24.75;97577.06;5043863;28;1476;-80
2023/04/30 10:52:02;;;;;;;;;;;;;;;22.16;24.80;97574.22;5030180;28;1493;-80
2023/04/30 10:54:34;;;;;;;;;;;;;;;21.84;24.94;97576.13;5034451;28;1901;-80
2023/04/30 10:57:13;;;;;;;;;;;;;;;21.64;25.66;97572.75;4999641;28;1556;-80
2023/04/30 10:59:46;;;;;;;;;;;;;;;21.66;25.42;97561.78;5006496;28;1170;-80
2023/04/30 11:02:11;;;;;;;;;;;;;;;21.59;25.44;97565.63;5023796;28;1237;-80
2023/04/30 11:04:56;;;;;;;;;;;;;;;22.18;24.64;97573.78;5023059;28;1380;-80
2023/04/30 11:07:24;;;;;;;;;;;;;;;22.18;24.70;97566.09;5025092;28;1095;-80
2023/04/30 11:09:49;;;;;;;;;;;;;;;21.96;25.10;97570.88;5023984;28;996;-79
2023/04/30 11:12:18;;;;;;;;;;;;;;;21.74;25.31;97571.59;5025511;28;861;-79
2023/04/30 11:14:44;;;;;;;;;;;;;;;21.81;25.10;97565.72;5023313;28;1898;-80
2023/04/30 11:17:10;;;;;;;;;;;;;;;21.77;25.39;97558.59;5024073;28;1065;-80
2023/04/30 11:19:41;;;;;;;;;;;;;;;21.79;25.28;97559.69;5006069;28;1139;-80
2023/04/30 11:22:06;;;;;;;;;;;;;;;21.62;25.46;97563.94;5023852;28;959;-80
2023/04/30 11:24:51;;;;;;;;;;;;;;;21.64;25.42;97566.31;5023214;28;1006;-80
2023/04/30 11:27:20;;;;;;;;;;;;;;;22.27;24.68;97568.97;5024641;28;1073;-80
2023/04/30 11:29:46;;;;;;;;;;;;;;;22.35;24.62;97558.97;5022608;28;951;-80
2023/04/30 11:32:11;;;;;;;;;;;;;;;22.10;24.85;97564.72;5023818;28;934;-79
2023/04/30 11:34:37;;;;;;;;;;;;;;;21.80;25.15;97561.28;5022465;28;1894;-80
2023/04/30 11:37:02;;;;;;;;;;;;;;;21.79;25.17;97556.09;5024453;28;970;-80
2023/04/30 11:39:28;;;;;;;;;;;;;;;21.58;25.57;97551.94;5024350;28;928;-80
2023/04/30 11:41:54;;;;;;;;;;;;;;;22.27;24.68;97551.19;5024238;28;938;-80
2023/04/30 11:44:26;;;;;;;;;;;;;;;22.24;24.73;97552.91;5004960;28;865;-80
2023/04/30 11:46:52;;;;;;;;;;;;;;;22.00;24.96;97557.38;5025377;28;1288;-80
2023/04/30 11:49:19;;;;;;;;;;;;;;;21.88;25.18;97558.22;5023111;28;888;-80
2023/04/30 11:51:47;;;;;;;;;;;;;;;21.68;25.75;97552.84;5025180;28;832;-80
2023/04/30 11:54:12;;;;;;;;;;;;;;;21.70;25.59;97551.09;5025586;28;1882;-80
2023/04/30 11:56:38;;;;;;;;;;;;;;;21.46;25.68;97547.09;4994317;28;1306;-80
2023/04/30 11:59:08;;;;;;;;;;;;;;;21.77;25.32;97542.38;4989844;28;1536;-79
2023/04/30 12:01:34;;;;;;;;;;;;;;;22.19;24.91;97544.19;4991121;28;1719;-80
2023/04/30 12:04:00;;;;;;;;;;;;;;;22.26;24.52;97547.56;4994558;28;1381;-80
2023/04/30 12:06:29;;;;;;;;;;;;;;;21.94;24.93;97539.38;4995500;28;1520;-80
2023/04/30 12:08:55;;;;;;;;;;;;;;;21.98;25.19;97545.72;4979334;28;1345;-80
2023/04/30 12:11:23;;;;;;;;;;;;;;;21.61;25.50;97545.38;4998379;28;1278;-80
2023/04/30 12:13:50;;;;;;;;;;;;;;;21.64;25.72;97538.00;5000387;28;1899;-80
2023/04/30 12:16:16;;;;;;;;;;;;;;;21.66;25.76;97541.97;5002412;28;934;-79
2023/04/30 12:18:41;;;;;;;;;;;;;;;22.03;24.94;97539.47;5000355;28;989;-80
2023/04/30 12:21:08;;;;;;;;;;;;;;;22.25;24.74;97554.47;4985911;28;1277;-80
2023/04/30 12:23:33;;;;;;;;;;;;;;;22.17;24.63;97547.47;4983740;28;1113;-80
2023/04/30 12:25:59;;;;;;;;;;;;;;;21.92;25.10;97547.56;4987208;28;982;-78
2023/04/30 12:28:25;;;;;;;;;;;;;;;21.81;25.32;97545.91;4972426;28;1225;-80
2023/04/30 12:30:52;;;;;;;;;;;;;;;21.64;25.54;97541.63;5024309;28;990;-78
2023/04/30 12:33:17;;;;;;;;;;;;;;;21.92;25.20;97544.72;4988096;28;1967;-80
2023/04/30 12:35:43;;;;;;;;;;;;;;;21.53;25.73;97544.03;5024425;28;906;-80
2023/04/30 12:38:08;;;;;;;;;;;;;;;21.35;25.92;97546.63;4989479;28;1116;-80
2023/04/30 12:40:34;;;;;;;;;;;;;;;22.02;24.97;97546.38;5024185;28;855;-79
2023/04/30 12:43:00;;;;;;;;;;;;;;;22.30;24.51;97534.03;4989452;28;1202;-80
2023/04/30 12:45:42;;;;;;;;;;;;;;;22.01;24.84;97536.28;5005478;28;1533;-80
2023/04/30 12:48:08;;;;;;;;;;;;;;;21.91;25.43;97538.25;5024233;28;1498;-80
2023/04/30 12:50:33;;;;;;;;;;;;;;;21.83;25.55;97534.88;5009172;28;1319;-80
2023/04/30 12:53:03;;;;;;;;;;;;;;;21.66;25.69;97541.97;5024133;28;1490;-80
2023/04/30 12:55:29;;;;;;;;;;;;;;;21.72;25.39;97533.69;4999799;28;2007;-80